Time;durP1;ratioP1;P1;durP2;ratioP2;P2;SDS_P1;SDS_P2;PMS_P1;PMS_P2;Temp;Humidity;BMP_temperature;BMP_pressure;BME280_temperature;BME280_humidity;BME280_pressure;Samples;Min_cycle;Max_cycle;Signal;HPM_P1;HPM_P2
2021/12/21 00:02:35;;;;;;;2.20;1.50;;;-7.80;99.90;;;;;;5086026;27;20547;-56
2021/12/21 00:05:19;;;;;;;2.78;1.65;;;-7.90;99.90;;;;;;5085648;28;20663;-56
2021/12/21 00:08:01;;;;;;;2.38;1.90;;;-8.00;99.90;;;;;;5086180;28;21041;-56
2021/12/21 00:10:43;;;;;;;2.40;2.05;;;-8.00;99.90;;;;;;5086314;28;20656;-56
2021/12/21 00:13:36;;;;;;;2.90;2.10;;;-8.00;99.90;;;;;;5147126;27;20661;-56
2021/12/21 00:16:28;;;;;;;2.33;1.95;;;-8.00;99.90;;;;;;5106334;27;20534;-56
2021/12/21 00:19:22;;;;;;;4.05;2.63;;;-7.90;99.90;;;;;;5085941;28;20688;-56
2021/12/21 00:22:08;;;;;;;2.65;2.45;;;-7.90;99.90;;;;;;5085892;28;20655;-56
2021/12/21 00:24:49;;;;;;;3.10;2.80;;;-7.90;99.90;;;;;;5085621;28;20671;-56
2021/12/21 00:27:28;;;;;;;3.72;3.25;;;-8.00;99.90;;;;;;5127369;27;20877;-56
2021/12/21 00:30:09;;;;;;;3.97;3.58;;;-8.10;99.90;;;;;;5106239;27;20919;-56
2021/12/21 00:32:50;;;;;;;3.53;3.22;;;-8.10;99.90;;;;;;5126917;27;20524;-56
2021/12/21 00:35:30;;;;;;;7.15;5.05;;;-8.20;99.90;;;;;;5085780;27;20551;-57
2021/12/21 00:38:09;;;;;;;6.20;5.22;;;-8.30;99.90;;;;;;5126970;27;20527;-56
2021/12/21 00:40:49;;;;;;;8.48;5.60;;;-8.30;99.90;;;;;;5085948;28;20660;-56
2021/12/21 00:43:29;;;;;;;5.95;5.35;;;-8.30;99.90;;;;;;5086156;27;20539;-56
2021/12/21 00:46:09;;;;;;;5.57;4.25;;;-8.30;99.90;;;;;;5147107;27;20542;-56
2021/12/21 00:48:51;;;;;;;5.57;5.07;;;-8.30;99.90;;;;;;5079272;27;20557;-56
2021/12/21 00:51:31;;;;;;;5.28;4.72;;;-8.20;99.90;;;;;;5086296;28;20960;-57
2021/12/21 00:54:13;;;;;;;4.70;4.25;;;-8.10;99.90;;;;;;5086147;28;20663;-56
2021/12/21 00:56:53;;;;;;;4.50;4.07;;;-8.10;99.90;;;;;;5085949;28;21193;-56
2021/12/21 00:59:33;;;;;;;4.15;3.60;;;-8.00;99.90;;;;;;5085165;28;20555;-57
2021/12/21 01:02:13;;;;;;;4.97;3.30;;;-8.00;99.90;;;;;;5106534;27;20666;-56
2021/12/21 01:04:55;;;;;;;4.82;3.33;;;-7.90;99.90;;;;;;5126708;27;20532;-56
2021/12/21 01:07:37;;;;;;;4.22;3.75;;;-7.90;99.90;;;;;;5086026;28;20668;-56
2021/12/21 01:13:28;;;;;;;3.90;3.30;;;-7.80;99.90;;;;;;5086055;27;20536;-56
2021/12/21 01:16:24;;;;;;;2.90;2.70;;;-7.70;99.90;;;;;;5106116;27;20538;-57
2021/12/21 01:19:16;;;;;;;3.25;2.97;;;-7.60;99.90;;;;;;5086250;28;20695;-56
2021/12/21 01:22:08;;;;;;;2.72;2.53;;;-7.50;99.90;;;;;;5085655;28;20664;-56
2021/12/21 01:25:09;;;;;;;3.92;3.38;;;-7.50;99.90;;;;;;5085982;27;20547;-56
2021/12/21 01:27:57;;;;;;;4.18;3.78;;;-7.60;99.90;;;;;;5085937;28;21179;-56
2021/12/21 01:30:46;;;;;;;4.13;3.47;;;-7.60;99.90;;;;;;5126772;27;20543;-56
2021/12/21 01:33:41;;;;;;;4.13;3.72;;;-7.50;99.90;;;;;;5147402;27;20534;-56
2021/12/21 01:36:26;;;;;;;4.82;3.60;;;-7.50;99.90;;;;;;5086103;27;21103;-56
2021/12/21 01:39:15;;;;;;;4.28;3.88;;;-7.40;99.90;;;;;;5147585;27;21079;-56
2021/12/21 01:42:00;;;;;;;4.53;3.22;;;-7.30;99.90;;;;;;5086035;27;21025;-56
2021/12/21 01:49:34;;;;;;;3.60;2.78;;;-7.30;99.90;;;;;;5086240;28;20983;-56
2021/12/21 01:50:40;;;;;;;7.40;3.88;;;-7.10;99.90;;;;;;5085611;28;20667;-56
2021/12/21 01:53:20;;;;;;;4.47;3.63;;;-7.00;99.90;;;;;;5147406;27;20665;-56
2021/12/21 01:56:00;;;;;;;8.05;4.90;;;-7.00;99.90;;;;;;5126446;27;20945;-56
2021/12/21 01:58:40;;;;;;;9.75;5.55;;;-7.10;99.90;;;;;;5085920;27;20623;-56
2021/12/21 02:01:22;;;;;;;14.38;5.50;;;-7.20;99.90;;;;;;5085286;28;20675;-56
2021/12/21 02:04:02;;;;;;;8.13;5.35;;;-7.30;99.90;;;;;;5086058;28;20655;-56
2021/12/21 02:06:42;;;;;;;10.10;6.20;;;-7.40;99.90;;;;;;5126870;27;20532;-56
2021/12/21 02:09:28;;;;;;;9.10;5.90;;;-7.50;99.90;;;;;;5086053;28;20861;-56
2021/12/21 02:12:13;;;;;;;10.45;6.32;;;-7.60;99.90;;;;;;5144547;27;20546;-57
2021/12/21 02:14:57;;;;;;;13.23;6.35;;;-7.70;99.90;;;;;;5085387;27;20535;-56
2021/12/21 02:20:44;;;;;;;10.55;4.07;;;-7.80;99.90;;;;;;5126877;27;20671;-56
2021/12/21 02:23:27;;;;;;;7.93;4.65;;;-7.90;99.90;;;;;;5085911;28;20671;-56
2021/12/21 02:26:23;;;;;;;12.55;6.05;;;-8.00;99.90;;;;;;5085916;28;20535;-56
2021/12/21 02:29:25;;;;;;;7.20;5.07;;;-8.00;99.90;;;;;;5086123;28;20668;-56
2021/12/21 02:32:04;;;;;;;6.78;4.75;;;-8.10;99.90;;;;;;5086236;27;20543;-56
2021/12/21 02:34:44;;;;;;;7.78;4.70;;;-8.10;99.90;;;;;;5085511;28;20683;-56
2021/12/21 02:37:23;;;;;;;12.27;5.22;;;-8.10;99.90;;;;;;5147582;27;20534;-56
2021/12/21 02:40:04;;;;;;;8.20;5.78;;;-8.20;99.90;;;;;;5085946;28;20695;-56
2021/12/21 02:42:45;;;;;;;5.65;4.85;;;-8.30;99.90;;;;;;5147986;27;20951;-56
2021/12/21 02:45:25;;;;;;;7.00;5.32;;;-8.30;99.90;;;;;;5085979;28;20539;-56
2021/12/21 02:48:05;;;;;;;8.10;5.60;;;-8.30;99.90;;;;;;5067920;27;21074;-56
2021/12/21 02:50:44;;;;;;;7.28;5.68;;;-8.30;99.90;;;;;;5086148;27;20667;-57
2021/12/21 02:53:24;;;;;;;7.38;4.72;;;-8.20;99.90;;;;;;5086102;28;20539;-57
2021/12/21 02:56:04;;;;;;;7.93;5.57;;;-8.10;99.90;;;;;;5147244;27;20669;-57
2021/12/21 02:58:44;;;;;;;6.88;5.43;;;-7.90;99.90;;;;;;5126892;27;20548;-56
2021/12/21 03:01:23;;;;;;;8.90;6.20;;;-7.80;99.90;;;;;;5147032;27;20658;-56
2021/12/21 03:04:04;;;;;;;7.80;6.18;;;-7.70;99.90;;;;;;5086227;28;20648;-56
2021/12/21 03:07:33;;;;;;;14.27;7.00;;;-7.60;99.90;;;;;;5085945;27;20549;-56
2021/12/21 03:10:16;;;;;;;13.35;6.72;;;-7.40;99.90;;;;;;5148193;27;20771;-56
2021/12/21 03:15:53;;;;;;;11.43;6.38;;;-7.10;99.90;;;;;;5085816;28;20660;-56
2021/12/21 03:18:33;;;;;;;17.40;6.80;;;-7.00;99.90;;;;;;5086096;27;20551;-56
2021/12/21 03:21:13;;;;;;;8.10;6.55;;;-6.80;99.90;;;;;;5086153;28;21193;-57
2021/12/21 03:23:52;;;;;;;14.75;9.07;;;-6.70;99.90;;;;;;5086640;27;21076;-56
2021/12/21 03:26:32;;;;;;;15.27;7.47;;;-6.70;99.90;;;;;;5086581;28;20803;-56
2021/12/21 03:29:12;;;;;;;15.25;6.32;;;-6.60;99.90;;;;;;5086593;27;20555;-56
2021/12/21 03:31:52;;;;;;;13.10;5.63;;;-6.50;99.90;;;;;;5148294;27;20912;-56
2021/12/21 03:34:32;;;;;;;6.13;4.30;;;-6.50;99.90;;;;;;5086323;27;20924;-56
2021/12/21 03:37:14;;;;;;;10.18;4.78;;;-6.50;99.90;;;;;;5086958;27;21056;-56
2021/12/21 03:39:54;;;;;;;7.30;3.90;;;-6.60;99.90;;;;;;5163790;27;20683;-56
2021/12/21 03:42:34;;;;;;;7.68;3.70;;;-6.60;99.90;;;;;;5148749;27;20538;-56
2021/12/21 03:45:14;;;;;;;9.32;3.60;;;-6.60;99.90;;;;;;5148425;27;20554;-56
2021/12/21 03:47:54;;;;;;;5.80;2.80;;;-6.70;99.90;;;;;;5086380;28;20664;-56
2021/12/21 03:50:34;;;;;;;9.20;3.40;;;-6.80;99.90;;;;;;5086444;27;20544;-56
2021/12/21 03:53:14;;;;;;;12.60;3.78;;;-6.80;99.90;;;;;;5086507;27;20895;-56
2021/12/21 03:56:04;;;;;;;9.48;3.20;;;-6.90;99.90;;;;;;5147791;27;20653;-56
2021/12/21 03:58:44;;;;;;;6.15;2.60;;;-7.00;99.90;;;;;;5086693;27;20543;-56
2021/12/21 04:01:23;;;;;;;8.52;2.75;;;-7.00;99.90;;;;;;5086162;27;20551;-56
2021/12/21 04:04:03;;;;;;;9.77;2.80;;;-7.10;99.90;;;;;;5147782;27;20534;-56
2021/12/21 04:06:42;;;;;;;3.17;2.88;;;-7.20;99.90;;;;;;5106691;27;20545;-56
2021/12/21 04:09:22;;;;;;;5.97;3.03;;;-7.20;99.90;;;;;;5085987;27;20581;-56
2021/12/21 04:12:02;;;;;;;4.80;2.72;;;-7.20;99.90;;;;;;5147526;27;20952;-57
2021/12/21 04:14:42;;;;;;;4.50;2.80;;;-7.30;99.90;;;;;;5085938;28;21023;-56
2021/12/21 04:17:24;;;;;;;6.50;2.90;;;-7.30;99.90;;;;;;5127177;27;20537;-56
2021/12/21 04:20:04;;;;;;;7.65;3.00;;;-7.40;99.90;;;;;;5105846;27;20678;-56
2021/12/21 04:22:43;;;;;;;3.25;2.90;;;-7.60;99.90;;;;;;5086111;27;20563;-56
2021/12/21 04:25:23;;;;;;;8.90;3.40;;;-7.60;99.90;;;;;;5106055;27;21063;-56
2021/12/21 04:28:03;;;;;;;10.18;3.25;;;-7.80;99.90;;;;;;5086742;27;20539;-56
2021/12/21 04:30:42;;;;;;;5.18;3.33;;;-7.80;99.90;;;;;;5086086;27;20541;-56
2021/12/21 04:33:22;;;;;;;14.68;3.92;;;-7.90;99.90;;;;;;5106508;27;20888;-56
2021/12/21 04:36:03;;;;;;;5.85;3.45;;;-7.90;99.90;;;;;;5085632;27;21028;-56
2021/12/21 04:38:57;;;;;;;9.95;4.22;;;-7.90;99.90;;;;;;5085760;28;21169;-56
2021/12/21 04:41:37;;;;;;;4.15;3.80;;;-7.80;99.90;;;;;;5085987;28;21018;-56
2021/12/21 04:44:17;;;;;;;10.75;3.53;;;-7.80;99.90;;;;;;5086023;28;20664;-56
2021/12/21 04:46:56;;;;;;;23.20;4.35;;;-7.70;99.90;;;;;;5085665;27;20883;-56
2021/12/21 04:49:36;;;;;;;5.20;3.78;;;-7.60;99.90;;;;;;5072783;28;20689;-56
2021/12/21 04:52:16;;;;;;;7.55;4.60;;;-7.40;99.90;;;;;;5085797;27;20539;-56
2021/12/21 04:54:56;;;;;;;12.18;4.63;;;-7.20;99.90;;;;;;5106337;27;21197;-56
2021/12/21 04:57:36;;;;;;;6.45;4.30;;;-7.20;99.90;;;;;;5086156;28;20664;-57
2021/12/21 05:00:17;;;;;;;4.53;4.10;;;-7.20;99.90;;;;;;5085622;27;20539;-57
2021/12/21 05:02:57;;;;;;;11.50;4.25;;;-7.20;99.90;;;;;;5086204;27;20565;-56
2021/12/21 05:05:37;;;;;;;14.30;4.28;;;-7.20;99.90;;;;;;5085514;27;21079;-56
2021/12/21 05:08:22;;;;;;;5.22;3.67;;;-7.30;99.90;;;;;;5085908;28;20659;-56
2021/12/21 05:11:04;;;;;;;4.28;3.45;;;-7.40;99.90;;;;;;5086095;28;20675;-56
2021/12/21 05:13:43;;;;;;;6.53;3.58;;;-7.60;99.90;;;;;;5086052;27;21152;-56
2021/12/21 05:16:22;;;;;;;3.17;2.92;;;-7.60;99.90;;;;;;5106618;27;20681;-57
2021/12/21 05:19:02;;;;;;;3.60;3.30;;;-7.80;99.90;;;;;;5085945;27;20563;-56
2021/12/21 05:21:42;;;;;;;4.00;3.50;;;-7.80;99.90;;;;;;5085979;28;20683;-56
2021/12/21 05:24:22;;;;;;;3.97;3.50;;;-7.90;99.90;;;;;;5085981;28;21395;-56
2021/12/21 05:27:02;;;;;;;4.25;3.13;;;-8.00;99.90;;;;;;5086065;27;21052;-56
2021/12/21 05:29:41;;;;;;;3.35;3.05;;;-8.00;99.90;;;;;;5086093;28;20676;-56
2021/12/21 05:32:22;;;;;;;3.83;3.53;;;-8.10;99.90;;;;;;5147936;27;20661;-56
2021/12/21 05:35:01;;;;;;;5.05;3.60;;;-8.10;99.90;;;;;;5125772;27;20683;-56
2021/12/21 05:37:42;;;;;;;3.67;3.47;;;-8.20;99.90;;;;;;5085745;27;20571;-56
2021/12/21 05:40:21;;;;;;;4.25;3.90;;;-8.30;99.90;;;;;;5085857;28;20671;-56
2021/12/21 05:43:01;;;;;;;6.10;3.45;;;-8.20;99.90;;;;;;5147537;27;20665;-56
2021/12/21 05:45:41;;;;;;;6.18;5.65;;;-8.30;99.90;;;;;;5147136;27;20539;-57
2021/12/21 05:48:20;;;;;;;4.43;3.30;;;-8.40;99.90;;;;;;5079392;28;20691;-57
2021/12/21 05:51:00;;;;;;;3.45;3.15;;;-8.40;99.90;;;;;;5147150;27;21011;-56
2021/12/21 05:53:40;;;;;;;3.10;2.83;;;-8.50;99.90;;;;;;5085099;28;20542;-56
2021/12/21 05:56:20;;;;;;;3.72;3.42;;;-8.50;99.90;;;;;;5086014;28;20663;-56
2021/12/21 05:59:02;;;;;;;3.00;2.80;;;-8.50;99.90;;;;;;5085569;28;20680;-56
2021/12/21 06:01:41;;;;;;;2.90;2.70;;;-8.60;99.90;;;;;;5147490;27;20653;-56
2021/12/21 06:04:24;;;;;;;3.28;3.08;;;-8.60;99.90;;;;;;5085851;27;20555;-57
2021/12/21 06:07:03;;;;;;;3.78;3.47;;;-8.70;99.90;;;;;;5086164;28;21180;-56
2021/12/21 06:09:45;;;;;;;3.92;3.53;;;-8.80;99.90;;;;;;5085684;28;20559;-57
2021/12/21 06:12:40;;;;;;;5.25;3.75;;;-8.90;99.90;;;;;;5085792;27;21069;-56
2021/12/21 06:15:28;;;;;;;3.92;3.63;;;-8.90;99.90;;;;;;5085368;28;20663;-56
2021/12/21 06:27:02;;;;;;;4.60;3.40;;;-8.50;99.90;;;;;;5106044;27;20654;-56
2021/12/21 06:29:42;;;;;;;3.35;3.15;;;-8.50;99.90;;;;;;5085624;27;20563;-56
2021/12/21 06:32:21;;;;;;;2.80;2.60;;;-8.60;99.90;;;;;;5085437;28;20672;-56
2021/12/21 06:35:01;;;;;;;3.17;2.97;;;-8.80;99.90;;;;;;5105966;27;20948;-56
2021/12/21 06:37:41;;;;;;;4.00;3.70;;;-8.90;99.90;;;;;;5085820;28;21001;-56
2021/12/21 06:40:22;;;;;;;4.05;3.65;;;-9.10;99.90;;;;;;5085680;27;21084;-56
2021/12/21 06:43:03;;;;;;;3.90;3.60;;;-9.20;99.90;;;;;;5145497;27;21128;-55
2021/12/21 06:45:50;;;;;;;3.10;2.90;;;-9.20;99.90;;;;;;5083909;28;20589;-56
2021/12/21 06:51:33;;;;;;;3.20;3.00;;;-9.30;99.90;;;;;;5104481;27;20553;-57
2021/12/21 06:54:13;;;;;;;3.60;3.30;;;-9.30;99.90;;;;;;5124931;27;20536;-56
2021/12/21 06:56:53;;;;;;;3.80;3.10;;;-9.30;99.90;;;;;;5125777;27;20540;-56
2021/12/21 06:59:33;;;;;;;3.88;3.50;;;-9.40;99.90;;;;;;5085360;27;20572;-56
2021/12/21 07:02:13;;;;;;;3.30;3.10;;;-9.40;99.90;;;;;;5106769;27;20561;-56
2021/12/21 07:04:53;;;;;;;5.00;4.60;;;-9.40;99.90;;;;;;5086145;27;20746;-56
2021/12/21 07:07:32;;;;;;;3.03;2.83;;;-9.40;99.90;;;;;;5085726;27;20531;-56
2021/12/21 07:10:21;;;;;;;3.60;3.30;;;-9.40;99.90;;;;;;5086347;28;20664;-56
2021/12/21 07:18:58;;;;;;;3.05;2.65;;;-9.40;99.90;;;;;;5104665;27;20581;-56
2021/12/21 07:21:38;;;;;;;3.28;2.97;;;-9.40;99.90;;;;;;5149800;27;21213;-57
2021/12/21 07:24:17;;;;;;;3.00;2.78;;;-9.30;99.90;;;;;;5085776;27;21054;-56
2021/12/21 07:26:57;;;;;;;3.38;3.08;;;-9.20;99.90;;;;;;5146929;27;20538;-56
2021/12/21 07:29:37;;;;;;;4.47;4.07;;;-9.20;99.90;;;;;;5085889;27;20547;-57
2021/12/21 07:32:17;;;;;;;4.30;4.00;;;-9.10;99.90;;;;;;5126686;27;20543;-56
2021/12/21 07:34:57;;;;;;;5.85;5.35;;;-9.00;99.90;;;;;;5106111;27;20705;-56
2021/12/21 07:37:37;;;;;;;7.88;7.07;;;-8.80;99.90;;;;;;5086079;28;20565;-55
2021/12/21 07:40:17;;;;;;;8.40;7.57;;;-8.70;99.90;;;;;;5126924;27;20548;-57
2021/12/21 07:42:56;;;;;;;11.13;10.10;;;-8.50;99.90;;;;;;5106327;27;20666;-56
2021/12/21 07:45:36;;;;;;;6.90;6.20;;;-8.40;99.90;;;;;;5126868;27;20544;-56
2021/12/21 07:48:17;;;;;;;9.32;8.63;;;-8.40;99.90;;;;;;5084054;27;20590;-56
2021/12/21 07:50:58;;;;;;;4.90;4.05;;;-8.30;99.90;;;;;;5086424;28;20672;-56
2021/12/21 07:53:38;;;;;;;4.40;4.03;;;-8.30;99.90;;;;;;5086445;27;20531;-56
2021/12/21 07:56:18;;;;;;;4.55;4.07;;;-8.20;99.90;;;;;;5086324;27;20543;-58
2021/12/21 07:58:57;;;;;;;4.05;3.60;;;-8.20;99.90;;;;;;5086193;28;21383;-56
2021/12/21 08:01:37;;;;;;;4.82;3.97;;;-8.10;99.90;;;;;;5147728;27;20661;-56
2021/12/21 08:04:17;;;;;;;4.47;3.95;;;-8.10;99.90;;;;;;5085947;28;20662;-57
2021/12/21 08:07:02;;;;;;;4.50;3.92;;;-8.00;99.90;;;;;;5147646;27;20534;-56
2021/12/21 08:09:47;;;;;;;8.43;3.97;;;-7.90;99.90;;;;;;5106385;27;20550;-57
2021/12/21 08:12:26;;;;;;;4.50;4.10;;;-7.70;99.90;;;;;;5147700;27;20599;-57
2021/12/21 08:15:06;;;;;;;4.20;3.83;;;-7.60;99.90;;;;;;5147482;27;20669;-57
2021/12/21 08:17:45;;;;;;;4.82;4.40;;;-7.50;99.90;;;;;;5147380;27;20547;-57
2021/12/21 08:20:26;;;;;;;4.55;4.15;;;-7.30;99.90;;;;;;5147517;27;20953;-58
2021/12/21 08:23:08;;;;;;;6.05;5.55;;;-7.20;99.90;;;;;;5086293;28;20687;-54
2021/12/21 08:25:48;;;;;;;8.55;7.75;;;-7.10;99.90;;;;;;5147583;27;21178;-56
2021/12/21 08:28:28;;;;;;;5.85;5.43;;;-7.00;99.90;;;;;;5085968;28;20559;-57
2021/12/21 08:31:10;;;;;;;6.47;5.72;;;-6.90;99.90;;;;;;5081957;27;20591;-57
2021/12/21 08:33:49;;;;;;;3.63;3.42;;;-6.80;99.90;;;;;;5077560;28;20540;-56
2021/12/21 08:36:29;;;;;;;3.80;3.50;;;-6.60;99.90;;;;;;5084439;28;20668;-58
2021/12/21 08:39:09;;;;;;;11.70;10.80;;;-6.50;99.90;;;;;;5097036;27;20675;-57
2021/12/21 08:41:55;;;;;;;5.53;4.70;;;-6.30;99.90;;;;;;5086187;27;20528;-56
2021/12/21 08:44:35;;;;;;;6.50;6.00;;;-6.20;99.90;;;;;;5085718;28;20660;-57
2021/12/21 08:47:15;;;;;;;4.72;4.32;;;-6.10;99.90;;;;;;5105813;27;20545;-57
2021/12/21 08:49:54;;;;;;;4.38;4.00;;;-6.00;99.90;;;;;;5090306;27;20556;-57
2021/12/21 08:52:36;;;;;;;4.43;4.03;;;-5.90;99.90;;;;;;5146759;27;20689;-57
2021/12/21 08:55:17;;;;;;;4.22;3.90;;;-5.70;99.90;;;;;;5085966;27;20540;-57
2021/12/21 08:57:57;;;;;;;4.68;4.28;;;-5.60;99.90;;;;;;5085479;28;21020;-57
2021/12/21 09:00:37;;;;;;;4.75;4.35;;;-5.50;99.90;;;;;;5084973;28;20664;-57
2021/12/21 09:03:17;;;;;;;4.78;4.22;;;-5.40;99.90;;;;;;5084690;27;20545;-56
2021/12/21 09:05:57;;;;;;;4.40;4.00;;;-5.40;99.90;;;;;;5146651;27;20538;-56
2021/12/21 09:08:37;;;;;;;5.50;4.53;;;-5.40;99.90;;;;;;5073710;27;20632;-57
2021/12/21 09:11:16;;;;;;;3.72;3.42;;;-5.40;99.90;;;;;;5125877;27;20540;-55
2021/12/21 09:13:56;;;;;;;4.30;4.00;;;-5.30;99.90;;;;;;5084515;28;20671;-57
2021/12/21 09:16:36;;;;;;;5.03;3.90;;;-5.30;99.90;;;;;;5085214;27;20664;-57
2021/12/21 09:19:16;;;;;;;5.43;5.00;;;-5.30;99.90;;;;;;5147016;27;20547;-56
2021/12/21 09:21:55;;;;;;;4.55;4.15;;;-5.30;99.90;;;;;;5126210;27;20948;-56
2021/12/21 09:24:36;;;;;;;9.10;7.75;;;-5.30;99.90;;;;;;5085324;27;20535;-56
2021/12/21 09:27:16;;;;;;;5.88;5.32;;;-5.30;99.90;;;;;;5147670;27;20673;-57
2021/12/21 09:29:55;;;;;;;5.32;4.82;;;-5.10;99.90;;;;;;5085783;28;20683;-57
2021/12/21 09:32:35;;;;;;;6.00;5.43;;;-5.00;99.90;;;;;;5126676;27;20528;-56
2021/12/21 09:35:15;;;;;;;5.00;4.60;;;-4.90;99.90;;;;;;5085766;27;20536;-56
2021/12/21 09:37:55;;;;;;;6.10;5.50;;;-4.70;99.90;;;;;;5085838;27;20543;-56
2021/12/21 09:40:39;;;;;;;5.57;5.07;;;-4.60;99.90;;;;;;5147769;27;20630;-55
2021/12/21 09:43:20;;;;;;;8.00;5.50;;;-4.50;99.90;;;;;;5086410;27;20535;-59
2021/12/21 09:46:00;;;;;;;5.15;4.75;;;-4.50;99.90;;;;;;5044801;28;21233;-57
2021/12/21 09:48:40;;;;;;;4.90;4.22;;;-4.40;99.90;;;;;;5080257;27;21081;-55
2021/12/21 09:51:21;;;;;;;5.60;5.13;;;-4.30;99.90;;;;;;5147330;27;20534;-57
2021/12/21 09:54:00;;;;;;;6.07;4.88;;;-4.30;99.90;;;;;;5147379;27;20657;-58
2021/12/21 09:56:40;;;;;;;5.38;4.88;;;-4.30;99.90;;;;;;5086052;28;20668;-56
2021/12/21 09:59:19;;;;;;;4.90;4.18;;;-4.30;99.90;;;;;;5085805;28;21403;-54
2021/12/21 10:01:59;;;;;;;4.15;3.78;;;-4.20;99.90;;;;;;5147879;27;20535;-57
2021/12/21 10:04:47;;;;;;;6.72;4.00;;;-4.20;99.90;;;;;;5085764;28;20656;-57
2021/12/21 10:07:27;;;;;;;4.72;4.28;;;-4.20;99.90;;;;;;5085777;28;20672;-56
2021/12/21 10:10:10;;;;;;;5.25;4.78;;;-4.10;99.90;;;;;;5085623;28;20551;-57
2021/12/21 10:12:50;;;;;;;6.43;4.20;;;-4.00;99.90;;;;;;5086517;28;20663;-56
2021/12/21 10:15:30;;;;;;;5.78;4.55;;;-4.00;99.90;;;;;;5147510;27;20952;-56
2021/12/21 10:18:10;;;;;;;5.18;4.60;;;-3.90;99.90;;;;;;5126993;27;20548;-57
2021/12/21 10:20:49;;;;;;;5.18;4.65;;;-3.90;99.90;;;;;;5086041;27;21318;-56
2021/12/21 10:23:31;;;;;;;5.20;4.68;;;-3.80;99.90;;;;;;5106459;27;20545;-57
2021/12/21 10:26:12;;;;;;;5.50;5.00;;;-3.70;99.90;;;;;;5147169;27;20534;-55
2021/12/21 10:28:53;;;;;;;8.25;4.32;;;-3.70;99.90;;;;;;5146720;27;20677;-56
2021/12/21 10:31:36;;;;;;;5.13;4.63;;;-3.60;99.90;;;;;;5105768;27;20658;-57
2021/12/21 10:34:17;;;;;;;7.25;4.63;;;-3.50;99.90;;;;;;5086172;28;20950;-56
2021/12/21 10:36:57;;;;;;;6.15;5.65;;;-3.40;99.90;;;;;;5106738;27;20542;-56
2021/12/21 10:39:38;;;;;;;4.90;4.43;;;-3.30;99.90;;;;;;5126957;27;20560;-55
2021/12/21 10:42:17;;;;;;;5.28;4.68;;;-3.20;99.90;;;;;;5086319;28;21169;-55
2021/12/21 10:45:05;;;;;;;5.32;4.93;;;-3.20;99.90;;;;;;5147185;27;20646;-54
2021/12/21 10:47:46;;;;;;;5.00;4.53;;;-3.10;99.90;;;;;;5085669;28;20679;-55
2021/12/21 10:50:28;;;;;;;7.18;5.85;;;-3.00;99.90;;;;;;5066051;27;20549;-56
2021/12/21 10:53:08;;;;;;;5.38;4.95;;;-2.90;99.90;;;;;;5126876;27;20525;-55
2021/12/21 10:55:58;;;;;;;5.47;4.95;;;-2.80;99.90;;;;;;5147247;27;20542;-56
2021/12/21 10:58:42;;;;;;;5.45;4.95;;;-2.80;99.90;;;;;;5147302;27;20669;-55
2021/12/21 11:01:27;;;;;;;5.30;4.80;;;-2.80;99.90;;;;;;5105953;27;20545;-56
2021/12/21 11:04:14;;;;;;;5.15;4.13;;;-2.70;99.90;;;;;;5085966;28;20691;-55
2021/12/21 11:06:54;;;;;;;4.47;4.07;;;-2.70;99.90;;;;;;5086271;28;20676;-56
2021/12/21 11:09:34;;;;;;;4.28;3.88;;;-2.70;99.90;;;;;;5086156;28;21189;-57
2021/12/21 11:12:14;;;;;;;4.78;4.32;;;-2.70;99.90;;;;;;5085893;28;20656;-55
2021/12/21 11:14:57;;;;;;;5.75;5.07;;;-2.70;99.90;;;;;;5084550;27;20551;-55
2021/12/21 11:17:38;;;;;;;4.80;4.03;;;-2.60;99.90;;;;;;5086007;28;20660;-55
2021/12/21 11:20:18;;;;;;;5.00;4.60;;;-2.60;99.90;;;;;;5126766;27;20540;-54
2021/12/21 11:22:58;;;;;;;5.85;5.18;;;-2.60;99.90;;;;;;5086048;27;20551;-55
2021/12/21 11:25:38;;;;;;;4.65;4.20;;;-2.50;99.90;;;;;;5085836;28;20664;-55
2021/12/21 11:28:22;;;;;;;5.47;4.53;;;-2.40;99.90;;;;;;5106094;27;20669;-56
2021/12/21 11:31:04;;;;;;;6.55;5.88;;;-2.30;99.90;;;;;;5085928;27;20543;-55
2021/12/21 11:33:46;;;;;;;5.25;4.82;;;-2.30;99.90;;;;;;5106389;27;20662;-57
2021/12/21 11:39:23;;;;;;;5.22;4.75;;;-2.20;99.90;;;;;;5074884;28;20549;-55
2021/12/21 11:42:08;;;;;;;4.57;4.18;;;-2.20;99.90;;;;;;5084655;27;20545;-56
2021/12/21 11:44:53;;;;;;;6.40;4.97;;;-2.20;99.90;;;;;;5085938;27;20535;-57
2021/12/21 11:47:38;;;;;;;4.35;4.03;;;-2.10;99.90;;;;;;5105920;27;20545;-56
2021/12/21 11:50:19;;;;;;;5.38;4.97;;;-2.10;99.90;;;;;;5067022;27;20553;-55
2021/12/21 11:53:05;;;;;;;7.45;4.70;;;-2.10;99.90;;;;;;5126856;27;20675;-56
2021/12/21 11:55:46;;;;;;;5.80;5.30;;;-2.10;99.90;;;;;;5085696;28;20691;-55
2021/12/21 11:58:27;;;;;;;6.72;4.57;;;-2.10;99.90;;;;;;5147357;27;20651;-56
2021/12/21 12:01:16;;;;;;;5.10;4.60;;;-2.00;99.90;;;;;;5085304;27;20532;-56
2021/12/21 12:03:57;;;;;;;4.88;4.47;;;-2.00;99.90;;;;;;5085818;27;20888;-56
2021/12/21 12:06:47;;;;;;;6.78;5.25;;;-2.00;99.90;;;;;;5147116;27;21165;-56
2021/12/21 12:09:30;;;;;;;6.15;5.10;;;-1.90;99.90;;;;;;5106419;27;20673;-56
2021/12/21 12:12:12;;;;;;;5.50;4.60;;;-1.90;99.90;;;;;;5086445;28;21193;-53
2021/12/21 12:15:01;;;;;;;5.10;4.65;;;-1.90;99.90;;;;;;5085916;28;21017;-55
2021/12/21 12:17:50;;;;;;;5.22;4.32;;;-1.80;99.90;;;;;;5085978;27;20545;-55
2021/12/21 12:20:29;;;;;;;5.28;4.78;;;-1.80;99.90;;;;;;5085903;27;20548;-55
2021/12/21 12:23:09;;;;;;;5.55;5.05;;;-1.70;99.90;;;;;;5106288;27;20564;-56
2021/12/21 12:25:59;;;;;;;6.05;5.43;;;-1.70;99.90;;;;;;5085661;27;20563;-57
2021/12/21 12:28:38;;;;;;;5.53;4.47;;;-1.70;99.90;;;;;;5137861;27;20579;-57
2021/12/21 12:31:30;;;;;;;5.72;5.15;;;-1.70;99.90;;;;;;5104822;27;20584;-55
2021/12/21 12:34:09;;;;;;;5.38;4.88;;;-1.70;99.90;;;;;;5146186;27;20542;-55
2021/12/21 12:36:51;;;;;;;6.63;4.50;;;-1.70;99.90;;;;;;5158425;27;20538;-57
2021/12/21 12:39:33;;;;;;;5.03;4.55;;;-1.70;99.90;;;;;;5094216;27;20555;-56
2021/12/21 12:42:18;;;;;;;7.60;4.28;;;-1.70;99.90;;;;;;5090044;27;20532;-55
2021/12/21 12:45:15;;;;;;;5.65;4.13;;;-1.60;99.90;;;;;;5085471;27;20553;-55
2021/12/21 12:47:57;;;;;;;4.63;3.95;;;-1.60;99.90;;;;;;5085143;28;20668;-55
2021/12/21 12:50:40;;;;;;;8.15;4.05;;;-1.50;99.90;;;;;;5124645;27;20667;-56
2021/12/21 12:53:20;;;;;;;5.78;4.53;;;-1.50;99.90;;;;;;5125662;27;20676;-57
2021/12/21 12:56:03;;;;;;;6.40;4.68;;;-1.50;99.90;;;;;;5084713;28;20683;-56
2021/12/21 12:58:52;;;;;;;4.55;4.15;;;-1.40;99.90;;;;;;5079719;27;20553;-57
2021/12/21 13:01:41;;;;;;;5.78;5.28;;;-1.30;99.90;;;;;;5085307;28;20742;-55
2021/12/21 13:04:22;;;;;;;4.95;4.40;;;-1.20;99.90;;;;;;5155199;27;20661;-57
2021/12/21 13:07:01;;;;;;;6.28;4.45;;;-1.20;99.90;;;;;;5085226;28;20668;-55
2021/12/21 13:09:41;;;;;;;5.32;4.72;;;-1.10;99.90;;;;;;5112015;27;20972;-55
2021/12/21 13:12:21;;;;;;;5.05;4.65;;;-1.00;99.90;;;;;;5080582;28;21043;-54
2021/12/21 13:15:01;;;;;;;5.70;5.22;;;-0.90;99.90;;;;;;5084765;28;20672;-56
2021/12/21 13:17:43;;;;;;;5.40;4.90;;;-0.70;99.90;;;;;;5085184;28;20908;-55
2021/12/21 13:20:26;;;;;;;5.53;4.88;;;-0.50;99.90;;;;;;5066330;28;20685;-55
2021/12/21 13:23:16;;;;;;;5.10;4.60;;;-0.30;99.90;;;;;;5085207;28;20675;-56
2021/12/21 13:26:02;;;;;;;5.13;4.60;;;-0.10;99.90;;;;;;5085143;27;20556;-54
2021/12/21 13:28:48;;;;;;;4.88;4.47;;;0.10;99.90;;;;;;5100409;27;20564;-55
2021/12/21 13:31:28;;;;;;;4.75;4.30;;;0.20;99.90;;;;;;5146666;27;20661;-57
2021/12/21 13:34:08;;;;;;;5.30;4.60;;;0.20;99.90;;;;;;5105391;27;20670;-56
2021/12/21 13:36:50;;;;;;;5.38;4.82;;;0.30;99.90;;;;;;5085113;27;20539;-55
2021/12/21 13:39:31;;;;;;;5.47;4.97;;;0.30;99.90;;;;;;5114270;27;20557;-56
2021/12/21 13:42:14;;;;;;;8.82;5.82;;;0.30;99.90;;;;;;5105381;27;20550;-55
2021/12/21 13:44:55;;;;;;;6.05;5.50;;;0.30;99.90;;;;;;5146246;27;20653;-56
2021/12/21 13:47:41;;;;;;;3.92;3.63;;;0.30;99.90;;;;;;5146901;27;20543;-56
2021/12/21 13:50:23;;;;;;;5.35;4.85;;;0.30;99.90;;;;;;5134354;27;20920;-55
2021/12/21 13:53:03;;;;;;;4.30;3.78;;;0.30;99.90;;;;;;5126850;27;20533;-54
2021/12/21 13:55:43;;;;;;;4.70;4.20;;;0.30;99.90;;;;;;5084496;27;20452;-55
2021/12/21 13:58:23;;;;;;;5.32;4.90;;;0.30;99.90;;;;;;5126526;27;21080;-56
2021/12/21 14:01:02;;;;;;;5.18;4.65;;;0.30;99.90;;;;;;5146850;27;21202;-55
2021/12/21 14:03:50;;;;;;;5.25;4.75;;;0.30;99.90;;;;;;5086048;28;20535;-55
2021/12/21 14:06:30;;;;;;;4.00;3.60;;;0.30;99.90;;;;;;5085807;27;20535;-55
2021/12/21 14:09:12;;;;;;;4.50;4.10;;;0.30;99.90;;;;;;5124956;27;20560;-56
2021/12/21 14:11:56;;;;;;;6.38;4.70;;;0.30;99.90;;;;;;5085217;28;21151;-56
2021/12/21 14:14:37;;;;;;;5.90;3.77;;;0.40;99.90;;;;;;5084552;28;20556;-55
2021/12/21 14:17:17;;;;;;;5.32;3.63;;;0.40;99.90;;;;;;5104829;27;20541;-54
2021/12/21 14:19:58;;;;;;;3.38;3.13;;;0.40;99.90;;;;;;5085775;28;20683;-55
2021/12/21 14:22:39;;;;;;;3.63;2.78;;;0.40;99.90;;;;;;5142441;22;20543;-56
2021/12/21 14:25:22;;;;;;;5.80;3.33;;;0.30;99.90;;;;;;5083640;28;20680;-57
2021/12/21 14:28:09;;;;;;;2.35;2.03;;;0.20;99.90;;;;;;5084943;27;21075;-56
2021/12/21 14:30:48;;;;;;;4.57;2.67;;;0.10;99.90;;;;;;5084946;28;20684;-57
2021/12/21 14:33:44;;;;;;;3.72;2.97;;;0.00;99.90;;;;;;5125791;27;21068;-57
2021/12/21 14:36:25;;;;;;;4.85;3.10;;;-0.20;99.90;;;;;;5125072;27;21267;-57